createdAt,value
2019-04-21T00:00:06.228Z,99963.74
2019-04-21T00:02:37.655Z,99966.45
2019-04-21T00:05:25.982Z,99958.08
2019-04-21T00:08:10.875Z,99957.14
2019-04-21T00:10:38.534Z,99957.34
2019-04-21T00:13:03.745Z,99956.73
2019-04-21T00:15:27.692Z,99955.14
2019-04-21T00:17:57.068Z,99954.30
2019-04-21T00:20:30.902Z,99943.89
2019-04-21T00:23:13.121Z,99949.06
2019-04-21T00:25:44.948Z,99941.74
2019-04-21T00:28:36.264Z,99938.57
2019-04-21T00:31:00.590Z,99934.88
2019-04-21T00:33:21.418Z,99935.94
2019-04-21T00:35:56.205Z,99934.77
2019-04-21T00:38:51.466Z,99927.05
2019-04-21T00:41:13.743Z,99925.73
2019-04-21T00:43:41.382Z,99925.70
2019-04-21T00:46:06.911Z,99928.31
2019-04-21T00:48:47.633Z,99930.23
2019-04-21T00:53:59.628Z,99931.09
2019-04-21T00:56:27.511Z,99924.92
2019-04-21T00:58:59.823Z,99923.46
2019-04-21T01:01:31.248Z,99914.88
2019-04-21T01:04:06.617Z,99916.19
2019-04-21T01:06:35.156Z,99907.73
2019-04-21T01:09:02.775Z,99914.50
2019-04-21T01:11:32.051Z,99915.63
2019-04-21T01:14:12.040Z,99911.52
2019-04-21T01:16:49.767Z,99901.66
2019-04-21T01:19:12.368Z,99909.05
2019-04-21T01:21:23.983Z,99898.20
2019-04-21T01:24:07.955Z,99900.63
2019-04-21T01:26:42.781Z,99897.94
2019-04-21T01:29:20.849Z,99902.95
2019-04-21T01:31:51.179Z,99902.22
2019-04-21T01:34:29.083Z,99904.48
2019-04-21T01:36:59.963Z,99897.59
2019-04-21T01:39:39.338Z,99892.13
2019-04-21T01:42:08.928Z,99898.09
2019-04-21T01:44:43.085Z,99891.24
2019-04-21T01:47:10.236Z,99887.86
2019-04-21T01:49:39.516Z,99885.67
2019-04-21T01:55:14.037Z,99896.34
2019-04-21T01:57:52.634Z,99888.42
2019-04-21T02:00:19.022Z,99887.81
2019-04-21T02:03:03.226Z,99892.55
2019-04-21T02:05:37.566Z,99885.30
2019-04-21T02:08:02.588Z,99892.48
2019-04-21T02:10:40.429Z,99887.34
2019-04-21T02:13:08.297Z,99882.09
2019-04-21T02:15:48.773Z,99878.05
2019-04-21T02:18:18.841Z,99876.08
2019-04-21T02:20:43.450Z,99872.91
2019-04-21T02:23:34.600Z,99872.30
2019-04-21T02:26:03.780Z,99867.02
2019-04-21T02:28:42.681Z,99867.73
2019-04-21T02:31:20.412Z,99862.17
2019-04-21T02:33:57.473Z,99862.65
2019-04-21T02:36:30.802Z,99855.38
2019-04-21T02:41:35.125Z,99855.31
2019-04-21T02:44:04.174Z,99861.08
2019-04-21T02:46:35.229Z,99850.60
2019-04-21T02:49:06.037Z,99853.23
2019-04-21T02:51:33.798Z,99847.33
2019-04-21T02:54:37.355Z,99849.03
2019-04-21T02:59:15.267Z,99844.55
2019-04-21T03:04:26.317Z,99838.06
2019-04-21T03:12:20.161Z,99832.90
2019-04-21T03:15:04.408Z,99822.05
2019-04-21T03:17:29.594Z,99822.40
2019-04-21T03:20:02.875Z,99821.68
2019-04-21T03:25:30.238Z,99816.27
2019-04-21T03:38:05.783Z,99798.98
2019-04-21T03:40:18.825Z,99797.13
2019-04-21T03:42:57.171Z,99795.69
2019-04-21T03:45:32.973Z,99797.67
2019-04-21T03:48:01.049Z,99795.46
2019-04-21T03:53:02.866Z,99781.50
2019-04-21T04:01:00.591Z,99785.59
2019-04-21T04:06:20.821Z,99777.58
2019-04-21T04:11:30.020Z,99768.48
2019-04-21T04:14:04.047Z,99766.30
2019-04-21T04:18:58.670Z,99770.54
2019-04-21T04:21:37.197Z,99771.95
2019-04-21T04:24:04.040Z,99764.81
2019-04-21T04:29:20.287Z,99774.34
2019-04-21T04:31:41.566Z,99770.36
2019-04-21T04:39:36.572Z,99773.63
2019-04-21T04:42:12.608Z,99775.09
2019-04-21T04:44:57.589Z,99767.09
2019-04-21T04:49:49.660Z,99765.60
2019-04-21T04:52:34.492Z,99774.56
2019-04-21T04:54:59.445Z,99776.97
2019-04-21T04:57:25.394Z,99764.23
2019-04-21T04:59:47.783Z,99767.37
2019-04-21T05:02:29.857Z,99772.94
2019-04-21T05:07:44.680Z,99771.37
2019-04-21T05:15:02.919Z,99771.41
2019-04-21T05:17:37.782Z,99770.36
2019-04-21T05:20:10.399Z,99773.89
2019-04-21T05:22:35.283Z,99773.09
2019-04-21T05:24:58.418Z,99769.11
2019-04-21T05:27:34.637Z,99769.08
2019-04-21T05:30:26.624Z,99772.58
2019-04-21T05:32:52.983Z,99771.42
2019-04-21T05:35:26.824Z,99774.89
2019-04-21T05:38:03.104Z,99778.67
2019-04-21T05:40:29.550Z,99774.53
2019-04-21T05:43:08.009Z,99774.52
2019-04-21T05:45:40.987Z,99773.33
2019-04-21T05:50:44.131Z,99768.15
2019-04-21T05:53:26.902Z,99774.92
2019-04-21T05:58:25.959Z,99771.78
2019-04-21T06:03:36.855Z,99767.45
2019-04-21T06:06:09.997Z,99772.22
2019-04-21T06:08:36.159Z,99771.68
2019-04-21T06:11:10.493Z,99762.95
2019-04-21T06:16:14.031Z,99758.89
2019-04-21T06:18:53.090Z,99754.05
2019-04-21T06:21:23.334Z,99760.50
2019-04-21T06:24:13.166Z,99760.02
2019-04-21T06:26:53.733Z,99758.49
2019-04-21T06:28:59.319Z,99753.08
2019-04-21T06:32:02.070Z,99754.36
2019-04-21T06:34:03.553Z,99755.15
2019-04-21T06:36:45.103Z,99758.08
2019-04-21T06:41:49.190Z,99749.19
2019-04-21T06:44:23.996Z,99744.31
2019-04-21T06:46:53.314Z,99747.39
2019-04-21T06:49:28.114Z,99750.02
2019-04-21T06:51:57.928Z,99743.72
2019-04-21T06:54:30.637Z,99744.64
2019-04-21T06:56:58.667Z,99753.70
2019-04-21T06:59:30.110Z,99752.38
2019-04-21T07:02:22.494Z,99753.60
2019-04-21T07:04:46.460Z,99749.67
2019-04-21T07:07:05.334Z,99747.97
2019-04-21T07:09:44.188Z,99748.02
2019-04-21T07:12:13.707Z,99741.53
2019-04-21T07:14:49.486Z,99737.16
2019-04-21T07:17:24.656Z,99743.33
2019-04-21T07:19:55.382Z,99743.12
2019-04-21T07:22:25.003Z,99736.30
2019-04-21T07:24:49.421Z,99737.17
2019-04-21T07:27:24.260Z,99734.39
2019-04-21T07:29:55.402Z,99736.50
2019-04-21T07:32:22.098Z,99733.98
2019-04-21T07:34:52.816Z,99732.67
2019-04-21T07:37:24.006Z,99733.11
2019-04-21T07:39:49.974Z,99731.30
2019-04-21T07:42:18.640Z,99734.02
2019-04-21T07:44:50.854Z,99735.38
2019-04-21T07:47:27.193Z,99726.19
2019-04-21T07:50:00.547Z,99719.93
2019-04-21T07:52:52.085Z,99721.02
2019-04-21T07:57:32.027Z,99709.70
2019-04-21T08:00:16.065Z,99705.95
2019-04-21T08:02:34.267Z,99706.66
2019-04-21T08:07:49.414Z,99705.77
2019-04-21T08:10:07.225Z,99709.83
2019-04-21T08:12:30.601Z,99707.30
2019-04-21T08:15:15.746Z,99707.97
2019-04-21T08:17:36.467Z,99703.83
2019-04-21T08:20:09.599Z,99707.11
2019-04-21T08:22:41.194Z,99702.75
2019-04-21T08:25:10.372Z,99707.67
2019-04-21T08:27:44.733Z,99703.55
2019-04-21T08:30:04.966Z,99701.29
2019-04-21T08:32:46.611Z,99684.27
2019-04-21T08:35:34.638Z,99691.05
2019-04-21T08:37:37.074Z,99689.29
2019-04-21T08:40:09.806Z,99691.30
2019-04-21T08:42:38.718Z,99691.48
2019-04-21T08:45:11.082Z,99689.12
2019-04-21T08:47:42.620Z,99686.13
2019-04-21T08:50:11.235Z,99680.25
2019-04-21T08:52:44.512Z,99681.05
2019-04-21T08:55:22.546Z,99672.86
2019-04-21T08:58:16.929Z,99675.25
2019-04-21T09:00:43.261Z,99670.86
2019-04-21T09:03:07.967Z,99671.83
2019-04-21T09:05:35.891Z,99667.44
2019-04-21T09:08:04.816Z,99662.52
2019-04-21T09:10:34.937Z,99664.48
2019-04-21T09:13:04.276Z,99656.30
2019-04-21T09:15:36.443Z,99656.59
2019-04-21T09:18:03.054Z,99654.91
2019-04-21T09:20:50.902Z,99647.23
2019-04-21T09:23:11.065Z,99639.06
2019-04-21T09:25:44.874Z,99634.56
2019-04-21T09:28:09.383Z,99628.41
2019-04-21T09:30:19.820Z,99629.52
2019-04-21T09:32:53.052Z,99635.61
2019-04-21T09:35:20.083Z,99636.59
2019-04-21T09:37:56.162Z,99636.80
2019-04-21T09:40:27.375Z,99629.20
2019-04-21T09:42:56.847Z,99628.80
2019-04-21T09:45:22.427Z,99625.61
2019-04-21T09:47:59.071Z,99619.20
2019-04-21T09:50:19.863Z,99619.74
2019-04-21T09:52:54.515Z,99620.73
2019-04-21T09:55:22.790Z,99613.89
2019-04-21T09:57:54.010Z,99611.67
2019-04-21T10:00:24.465Z,99609.80
2019-04-21T10:02:57.904Z,99605.69
2019-04-21T10:05:19.668Z,99604.94
2019-04-21T10:07:48.940Z,99606.30
2019-04-21T10:10:17.676Z,99609.59
2019-04-21T10:12:47.735Z,99604.80
2019-04-21T10:15:18.751Z,99597.53
2019-04-21T10:18:06.348Z,99591.73
2019-04-21T10:20:36.066Z,99600.05
2019-04-21T10:23:05.296Z,99590.77
2019-04-21T10:25:34.529Z,99586.75
2019-04-21T10:28:03.389Z,99593.52
2019-04-21T10:30:36.366Z,99583.02
2019-04-21T10:33:06.167Z,99575.88
2019-04-21T10:35:37.504Z,99576.16
2019-04-21T10:38:20.316Z,99581.94
2019-04-21T10:40:37.518Z,99565.31
2019-04-21T10:43:09.072Z,99561.50
2019-04-21T10:45:39.006Z,99566.37
2019-04-21T10:48:10.802Z,99552.27
2019-04-21T10:50:41.161Z,99546.66
2019-04-21T10:53:16.720Z,99551.56
2019-04-21T10:55:59.035Z,99544.25
2019-04-21T10:58:22.413Z,99530.98
2019-04-21T11:00:54.165Z,99524.62
2019-04-21T11:03:25.077Z,99534.11
2019-04-21T11:05:56.615Z,99529.94
2019-04-21T11:08:32.582Z,99533.95
2019-04-21T11:10:58.200Z,99518.39
2019-04-21T11:16:17.130Z,99519.44
2019-04-21T11:18:46.150Z,99504.06
2019-04-21T11:21:16.833Z,99509.57
2019-04-21T11:23:46.020Z,99506.76
2019-04-21T11:26:16.029Z,99496.42
2019-04-21T11:28:45.290Z,99504.95
2019-04-21T11:31:15.653Z,99495.09
2019-04-21T11:33:45.310Z,99499.64
2019-04-21T11:36:15.295Z,99495.63
2019-04-21T11:39:03.324Z,99493.41
2019-04-21T11:41:19.828Z,99481.06
2019-04-21T11:43:50.922Z,99479.03
2019-04-21T11:46:20.500Z,99475.58
2019-04-21T11:48:52.495Z,99469.59
2019-04-21T11:51:22.948Z,99465.91
2019-04-21T11:53:51.290Z,99462.20
2019-04-21T11:56:20.898Z,99470.72
2019-04-21T11:58:49.985Z,99459.66
2019-04-21T12:01:18.805Z,99458.31
2019-04-21T12:03:47.603Z,99450.64
2019-04-21T12:06:17.334Z,99446.16
2019-04-21T12:08:49.408Z,99452.51
2019-04-21T12:11:16.132Z,99444.74
2019-04-21T12:13:45.739Z,99448.78
2019-04-21T12:16:14.971Z,99438.89
2019-04-21T12:18:45.007Z,99437.55
2019-04-21T12:21:13.671Z,99438.70
2019-04-21T12:23:42.743Z,99432.84
2019-04-21T12:26:11.535Z,99431.99
2019-04-21T12:28:42.214Z,99424.30
2019-04-21T12:31:13.590Z,99424.81
2019-04-21T12:33:46.278Z,99418.45
2019-04-21T12:36:15.846Z,99413.45
2019-04-21T12:38:50.914Z,99410.02
2019-04-21T12:41:16.731Z,99410.02
2019-04-21T12:43:46.512Z,99413.83
2019-04-21T12:46:15.942Z,99415.05
2019-04-21T12:48:44.466Z,99400.43
2019-04-21T12:51:12.821Z,99387.25
2019-04-21T12:53:41.665Z,99399.55
2019-04-21T12:56:11.696Z,99389.53
2019-04-21T12:58:41.533Z,99386.09
2019-04-21T13:01:10.693Z,99380.55
2019-04-21T13:03:39.692Z,99375.02
2019-04-21T13:06:09.782Z,99369.59
2019-04-21T13:08:48.818Z,99365.23
2019-04-21T13:11:09.619Z,99357.07
2019-04-21T13:13:39.918Z,99352.00
2019-04-21T13:16:09.603Z,99349.86
2019-04-21T13:18:39.459Z,99335.67
2019-04-21T13:21:08.062Z,99347.34
2019-04-21T13:23:36.984Z,99344.36
2019-04-21T13:26:06.515Z,99333.81
2019-04-21T13:28:35.799Z,99332.74
2019-04-21T13:31:04.431Z,99324.77
2019-04-21T13:33:33.386Z,99327.77
2019-04-21T13:36:04.798Z,99326.34
2019-04-21T13:38:42.193Z,99324.80
2019-04-21T13:41:29.826Z,99316.75
2019-04-21T13:43:45.449Z,99303.33
2019-04-21T13:46:15.379Z,99298.23
2019-04-21T13:48:44.529Z,99295.80
2019-04-21T13:51:13.422Z,99292.20
2019-04-21T13:53:42.026Z,99285.40
2019-04-21T13:56:10.768Z,99280.61
2019-04-21T13:58:40.158Z,99276.98
2019-04-21T14:01:09.659Z,99281.77
2019-04-21T14:03:38.043Z,99272.27
2019-04-21T14:06:06.751Z,99270.23
2019-04-21T14:08:37.235Z,99262.17
2019-04-21T14:11:07.128Z,99260.41
2019-04-21T14:13:36.470Z,99266.36
2019-04-21T14:16:06.259Z,99266.25
2019-04-21T14:18:34.570Z,99253.41
2019-04-21T14:21:03.200Z,99255.16
2019-04-21T14:23:37.839Z,99252.81
2019-04-21T14:26:03.958Z,99249.76
2019-04-21T14:28:33.585Z,99250.84
2019-04-21T14:31:02.370Z,99243.30
2019-04-21T14:33:32.045Z,99236.87
2019-04-21T14:36:01.184Z,99234.86
2019-04-21T14:38:29.922Z,99232.88
2019-04-21T14:40:58.301Z,99230.68
2019-04-21T14:43:27.726Z,99227.05
2019-04-21T14:46:13.455Z,99227.72
2019-04-21T14:49:01.334Z,99227.16
2019-04-21T14:51:52.668Z,99224.83
2019-04-21T14:54:22.891Z,99220.94
2019-04-21T14:56:51.430Z,99215.18
2019-04-21T14:59:19.778Z,99214.27
2019-04-21T15:01:49.558Z,99210.34
2019-04-21T15:04:19.084Z,99214.91
2019-04-21T15:06:49.482Z,99203.81
2019-04-21T15:09:18.876Z,99202.56
2019-04-21T15:11:47.780Z,99202.56
2019-04-21T15:14:16.204Z,99199.63
2019-04-21T15:16:45.054Z,99191.66
2019-04-21T15:19:14.740Z,99195.50
2019-04-21T15:21:44.643Z,99192.80
2019-04-21T15:24:14.241Z,99191.20
2019-04-21T15:26:44.311Z,99187.47
2019-04-21T15:29:12.877Z,99189.34
2019-04-21T15:31:44.658Z,99187.02
2019-04-21T15:34:13.005Z,99172.67
2019-04-21T15:36:42.010Z,99183.47
2019-04-21T15:39:11.907Z,99180.39
2019-04-21T15:41:40.788Z,99172.05
2019-04-21T15:44:09.907Z,99178.03
2019-04-21T15:46:39.940Z,99180.91
2019-04-21T15:49:09.207Z,99181.86
2019-04-21T15:51:40.005Z,99172.05
2019-04-21T15:56:49.085Z,99170.37
2019-04-21T15:59:19.447Z,99170.41
2019-04-21T16:01:50.675Z,99172.83
2019-04-21T16:04:20.773Z,99168.19
2019-04-21T16:06:49.978Z,99166.56
2019-04-21T16:09:21.674Z,99161.48
2019-04-21T16:11:49.704Z,99166.67
2019-04-21T16:14:18.731Z,99162.91
2019-04-21T16:16:47.496Z,99156.16
2019-04-21T16:19:16.446Z,99151.58
2019-04-21T16:21:46.512Z,99154.11
2019-04-21T16:24:16.340Z,99148.36
2019-04-21T16:26:44.943Z,99148.30
2019-04-21T16:29:13.409Z,99143.01
2019-04-21T16:31:42.668Z,99142.69
2019-04-21T16:34:11.231Z,99140.09
2019-04-21T16:36:39.605Z,99135.11
2019-04-21T16:39:09.424Z,99135.83
2019-04-21T16:41:38.364Z,99130.57
2019-04-21T16:44:07.239Z,99124.02
2019-04-21T16:46:35.794Z,99119.94
2019-04-21T16:49:04.264Z,99119.19
2019-04-21T16:51:33.849Z,99119.23
2019-04-21T16:54:04.036Z,99114.25
2019-04-21T16:56:39.824Z,99111.91
2019-04-21T16:59:12.636Z,99113.33
2019-04-21T17:01:40.948Z,99103.64
2019-04-21T17:04:10.751Z,99103.79
2019-04-21T17:06:40.779Z,99100.52
2019-04-21T17:09:10.588Z,99107.39
2019-04-21T17:11:40.121Z,99099.06
2019-04-21T17:14:27.291Z,99100.20
2019-04-21T17:17:03.227Z,99092.63
2019-04-21T17:19:18.052Z,99097.62
2019-04-21T17:21:39.912Z,99094.05
2019-04-21T17:24:10.455Z,99095.56
2019-04-21T17:26:41.107Z,99091.05
2019-04-21T17:29:10.425Z,99089.21
2019-04-21T17:31:39.397Z,99089.11
2019-04-21T17:34:13.822Z,99089.59
2019-04-21T17:36:39.306Z,99092.10
2019-04-21T17:39:08.930Z,99086.29
2019-04-21T17:41:49.438Z,99085.86
2019-04-21T17:44:08.769Z,99082.72
2019-04-21T17:46:46.600Z,99077.80
2019-04-21T17:49:10.899Z,99074.14
2019-04-21T17:51:55.597Z,99081.20
2019-04-21T17:54:33.195Z,99086.75
2019-04-21T17:57:16.609Z,99082.55
2019-04-21T17:59:51.213Z,99083.83
2019-04-21T18:02:09.447Z,99085.73
2019-04-21T18:04:42.917Z,99087.47
2019-04-21T18:07:10.328Z,99082.91
2019-04-21T18:09:51.930Z,99084.81
2019-04-21T18:12:13.645Z,99086.04
2019-04-21T18:14:28.376Z,99078.83
2019-04-21T18:16:58.296Z,99081.27
2019-04-21T18:19:31.214Z,99083.27
2019-04-21T18:22:14.719Z,99088.25
2019-04-21T18:24:54.229Z,99089.19
2019-04-21T18:27:15.608Z,99092.50
2019-04-21T18:29:44.436Z,99091.92
2019-04-21T18:32:17.550Z,99091.23
2019-04-21T18:34:54.463Z,99097.82
2019-04-21T18:37:31.770Z,99097.20
2019-04-21T18:40:03.321Z,99101.30
2019-04-21T18:42:42.097Z,99099.91
2019-04-21T18:48:02.324Z,99097.64
2019-04-21T18:50:46.167Z,99092.91
2019-04-21T18:53:32.041Z,99097.94
2019-04-21T18:55:50.507Z,99099.87
2019-04-21T18:58:17.987Z,99098.09
2019-04-21T19:00:48.610Z,99100.88
2019-04-21T19:03:25.329Z,99106.30
2019-04-21T19:05:53.986Z,99099.53
2019-04-21T19:08:30.311Z,99103.95
2019-04-21T19:11:08.256Z,99102.31
2019-04-21T19:13:53.213Z,99104.84
2019-04-21T19:16:31.440Z,99103.64
2019-04-21T19:18:50.587Z,99101.02
2019-04-21T19:21:07.144Z,99100.47
2019-04-21T19:23:45.567Z,99095.11
2019-04-21T19:26:23.338Z,99098.22
2019-04-21T19:28:47.557Z,99101.72
2019-04-21T19:31:10.958Z,99100.39
2019-04-21T19:33:34.214Z,99094.55
2019-04-21T19:35:50.510Z,99096.62
2019-04-21T19:38:30.632Z,99097.80
2019-04-21T19:41:03.989Z,99090.34
2019-04-21T19:43:44.299Z,99089.23
2019-04-21T19:46:09.607Z,99083.20
2019-04-21T19:48:44.702Z,99078.34
2019-04-21T19:51:05.274Z,99080.47
2019-04-21T19:53:37.186Z,99076.61
2019-04-21T19:55:54.171Z,99078.07
2019-04-21T19:58:30.689Z,99079.55
2019-04-21T20:00:55.574Z,99082.67
2019-04-21T20:03:24.143Z,99080.72
2019-04-21T20:06:03.130Z,99078.78
2019-04-21T20:08:36.669Z,99074.33
2019-04-21T20:11:10.435Z,99072.83
2019-04-21T20:13:56.896Z,99075.22
2019-04-21T20:16:12.984Z,99068.80
2019-04-21T20:18:32.539Z,99069.75
2019-04-21T20:20:54.445Z,99068.46
2019-04-21T20:23:30.060Z,99070.41
2019-04-21T20:26:00.420Z,99062.33
2019-04-21T20:28:37.183Z,99066.08
2019-04-21T20:31:24.939Z,99065.45
2019-04-21T20:36:21.069Z,99062.13
2019-04-21T20:38:42.134Z,99062.23
2019-04-21T20:41:19.629Z,99065.97
2019-04-21T20:43:54.267Z,99058.91
2019-04-21T20:46:24.935Z,99063.13
2019-04-21T20:48:52.653Z,99060.84
2019-04-21T20:51:27.413Z,99066.73
2019-04-21T20:53:53.641Z,99060.66
2019-04-21T20:56:21.185Z,99066.08
2019-04-21T20:59:00.027Z,99060.64
2019-04-21T21:01:35.456Z,99055.63
2019-04-21T21:04:04.333Z,99061.03
2019-04-21T21:06:36.109Z,99060.09
2019-04-21T21:09:10.340Z,99055.39
2019-04-21T21:11:46.483Z,99043.97
2019-04-21T21:14:16.423Z,99047.09
2019-04-21T21:16:47.623Z,99041.83
2019-04-21T21:19:32.954Z,99040.59
2019-04-21T21:21:54.325Z,99037.05
2019-04-21T21:24:31.229Z,99045.49
2019-04-21T21:27:04.680Z,99044.56
2019-04-21T21:29:26.439Z,99041.86
2019-04-21T21:32:14.666Z,99036.59
2019-04-21T21:34:36.696Z,99038.18
2019-04-21T21:37:17.730Z,99033.52
2019-04-21T21:39:43.958Z,99035.58
2019-04-21T21:41:52.120Z,99031.97
2019-04-21T21:44:24.614Z,99029.11
2019-04-21T21:47:06.542Z,99034.23
2019-04-21T21:49:38.221Z,99030.73
2019-04-21T21:52:06.107Z,99034.34
2019-04-21T21:54:25.819Z,99030.94
2019-04-21T21:56:56.407Z,99024.91
2019-04-21T21:59:29.386Z,99023.98
2019-04-21T22:02:01.662Z,99020.97
2019-04-21T22:04:33.815Z,99015.52
2019-04-21T22:07:09.712Z,99018.45
2019-04-21T22:09:36.531Z,99015.77
2019-04-21T22:12:07.203Z,99012.25
2019-04-21T22:14:44.925Z,99007.20
2019-04-21T22:17:28.925Z,99006.00
2019-04-21T22:20:08.481Z,99011.64
2019-04-21T22:22:32.539Z,99011.31
2019-04-21T22:25:02.692Z,99010.83
2019-04-21T22:30:24.754Z,99004.13
2019-04-21T22:33:00.706Z,99005.17
2019-04-21T22:35:37.913Z,99004.72
2019-04-21T22:38:19.598Z,98998.14
2019-04-21T22:40:57.986Z,98996.22
2019-04-21T22:43:30.535Z,98997.42
2019-04-21T22:45:59.164Z,98995.77
2019-04-21T22:48:30.688Z,98988.81
2019-04-21T22:51:08.854Z,98988.45
2019-04-21T22:53:44.796Z,98987.78
2019-04-21T22:56:14.989Z,98988.18
2019-04-21T22:58:46.542Z,98986.46
2019-04-21T23:01:27.746Z,98987.91
2019-04-21T23:03:58.621Z,98983.02
2019-04-21T23:06:32.328Z,98985.14
2019-04-21T23:09:02.302Z,98981.94
2019-04-21T23:11:47.486Z,98984.06
2019-04-21T23:14:18.916Z,98977.97
2019-04-21T23:16:54.691Z,98978.63
2019-04-21T23:19:43.764Z,98976.98
2019-04-21T23:22:27.868Z,98983.46
2019-04-21T23:25:07.580Z,98980.98
2019-04-21T23:27:40.432Z,98975.72
2019-04-21T23:30:20.183Z,98976.73
2019-04-21T23:32:46.346Z,98975.64
2019-04-21T23:35:18.650Z,98968.58
2019-04-21T23:37:50.972Z,98970.38
2019-04-21T23:40:23.733Z,98945.74
2019-04-21T23:43:00.044Z,98966.95
2019-04-21T23:45:36.105Z,98963.34
2019-04-21T23:48:23.799Z,98956.76
2019-04-21T23:50:53.997Z,98957.73
2019-04-21T23:53:17.432Z,98951.77
2019-04-21T23:55:50.384Z,98945.97
2019-04-21T23:58:26.426Z,98949.84
